createdAt,value
2019-05-15T00:00:11.332Z,47.07
2019-05-15T00:02:39.072Z,45.34
2019-05-15T00:05:08.821Z,45.27
2019-05-15T00:07:34.029Z,45.23
2019-05-15T00:10:01.530Z,45.64
2019-05-15T00:12:29.052Z,45.89
2019-05-15T00:14:58.092Z,45.91
2019-05-15T00:17:24.122Z,46.37
2019-05-15T00:19:51.764Z,46.18
2019-05-15T00:22:19.210Z,46.46
2019-05-15T00:24:48.678Z,46.41
2019-05-15T00:27:15.313Z,46.59
2019-05-15T00:29:43.035Z,46.52
2019-05-15T00:32:10.496Z,46.80
2019-05-15T00:34:38.297Z,46.93
2019-05-15T00:37:05.773Z,46.68
2019-05-15T00:39:33.209Z,46.49
2019-05-15T00:42:00.656Z,46.67
2019-05-15T00:44:28.165Z,46.63
2019-05-15T00:46:55.607Z,46.62
2019-05-15T00:49:23.043Z,46.72
2019-05-15T00:51:50.518Z,46.62
2019-05-15T00:54:19.181Z,46.75
2019-05-15T00:56:45.584Z,47.35
2019-05-15T00:59:24.176Z,47.77
2019-05-15T01:01:40.512Z,47.71
2019-05-15T01:04:08.129Z,47.73
2019-05-15T01:06:35.447Z,47.78
2019-05-15T01:09:03.166Z,48.09
2019-05-15T01:11:31.408Z,48.37
2019-05-15T01:13:58.919Z,48.60
2019-05-15T01:16:28.129Z,49.15
2019-05-15T01:18:53.853Z,49.17
2019-05-15T01:21:21.294Z,49.05
2019-05-15T01:23:48.852Z,49.45
2019-05-15T01:26:18.660Z,49.68
2019-05-15T01:28:43.792Z,49.49
2019-05-15T01:31:11.259Z,49.03
2019-05-15T01:33:39.243Z,49.05
2019-05-15T01:36:08.420Z,49.07
2019-05-15T01:38:33.838Z,49.06
2019-05-15T01:41:01.284Z,49.35
2019-05-15T01:43:29.264Z,49.66
2019-05-15T01:45:58.734Z,49.38
2019-05-15T01:48:23.723Z,49.96
2019-05-15T01:50:51.197Z,50.53
2019-05-15T01:53:18.827Z,51.19
2019-05-15T01:55:48.255Z,51.42
2019-05-15T01:58:13.665Z,51.39
2019-05-15T02:00:41.122Z,51.15
2019-05-15T02:03:09.785Z,51.39
2019-05-15T02:05:38.817Z,51.58
2019-05-15T02:08:03.973Z,50.88
2019-05-15T02:10:31.411Z,51.01
2019-05-15T02:12:59.671Z,51.32
2019-05-15T02:15:28.581Z,51.33
2019-05-15T02:17:54.663Z,51.03
2019-05-15T02:20:22.107Z,50.70
2019-05-15T02:22:49.580Z,50.59
2019-05-15T02:25:18.547Z,50.44
2019-05-15T02:27:44.612Z,50.49
2019-05-15T02:30:21.390Z,50.44
2019-05-15T02:32:40.254Z,50.56
2019-05-15T02:35:09.922Z,50.49
2019-05-15T02:37:34.695Z,50.48
2019-05-15T02:40:02.323Z,50.86
2019-05-15T02:42:30.010Z,50.79
2019-05-15T02:44:58.662Z,50.43
2019-05-15T02:47:24.937Z,50.39
2019-05-15T02:49:52.402Z,50.18
2019-05-15T02:52:20.235Z,50.38
2019-05-15T02:54:49.785Z,50.69
2019-05-15T02:57:14.976Z,50.78
2019-05-15T02:59:42.775Z,50.64
2019-05-15T03:02:10.513Z,50.62
2019-05-15T03:04:39.987Z,50.96
2019-05-15T03:07:09.381Z,51.30
2019-05-15T03:09:33.285Z,51.69
2019-05-15T03:12:00.761Z,51.61
2019-05-15T03:14:29.087Z,51.72
2019-05-15T03:16:55.710Z,51.87
2019-05-15T03:19:23.243Z,52.42
2019-05-15T03:21:50.808Z,52.77
2019-05-15T03:24:19.454Z,53.58
2019-05-15T03:26:45.739Z,54.06
2019-05-15T03:29:13.177Z,54.72
2019-05-15T03:31:59.108Z,54.92
2019-05-15T03:34:19.283Z,54.81
2019-05-15T03:36:35.625Z,54.84
2019-05-15T03:39:03.673Z,55.05
2019-05-15T03:41:31.195Z,55.10
2019-05-15T03:43:59.603Z,54.94
2019-05-15T03:46:29.165Z,54.58
2019-05-15T03:48:54.353Z,54.71
2019-05-15T03:51:21.367Z,55.21
2019-05-15T03:53:49.774Z,55.42
2019-05-15T03:56:18.887Z,56.54
2019-05-15T03:58:43.778Z,56.67
2019-05-15T04:01:28.347Z,56.78
2019-05-15T04:03:39.789Z,56.40
2019-05-15T04:06:10.173Z,56.63
2019-05-15T04:08:34.760Z,57.37
2019-05-15T04:11:02.198Z,57.20
2019-05-15T04:13:30.205Z,56.12
2019-05-15T04:15:59.328Z,55.90
2019-05-15T04:18:25.024Z,56.22
2019-05-15T04:20:53.990Z,56.29
2019-05-15T04:23:21.559Z,56.20
2019-05-15T04:25:49.440Z,56.39
2019-05-15T04:28:19.237Z,56.45
2019-05-15T04:30:44.455Z,56.37
2019-05-15T04:33:11.991Z,56.41
2019-05-15T04:35:40.650Z,56.77
2019-05-15T04:38:09.398Z,57.56
2019-05-15T04:40:39.246Z,57.55
2019-05-15T04:43:03.892Z,57.13
2019-05-15T04:45:34.889Z,57.04
2019-05-15T04:47:59.085Z,57.35
2019-05-15T04:50:28.759Z,56.79
2019-05-15T04:52:54.084Z,56.44
2019-05-15T04:55:22.235Z,56.33
2019-05-15T04:57:50.273Z,56.10
2019-05-15T05:00:19.884Z,56.23
2019-05-15T05:02:44.675Z,56.12
2019-05-15T05:05:12.274Z,56.06
2019-05-15T05:07:40.146Z,56.01
2019-05-15T05:10:09.529Z,55.81
2019-05-15T05:12:35.092Z,55.71
2019-05-15T05:15:02.558Z,55.40
2019-05-15T05:17:30.066Z,55.59
2019-05-15T05:19:58.331Z,55.72
2019-05-15T05:22:25.225Z,55.54
2019-05-15T05:24:52.690Z,55.32
2019-05-15T05:27:20.121Z,55.24
2019-05-15T05:29:48.080Z,55.00
2019-05-15T05:32:28.810Z,55.36
2019-05-15T05:34:42.540Z,55.29
2019-05-15T05:37:10.092Z,55.25
2019-05-15T05:39:39.314Z,54.85
2019-05-15T05:42:05.273Z,54.88
2019-05-15T05:44:32.741Z,55.06
2019-05-15T05:47:00.198Z,54.80
2019-05-15T05:49:28.835Z,54.24
2019-05-15T05:51:55.128Z,54.58
2019-05-15T05:54:22.723Z,54.46
2019-05-15T05:56:50.185Z,54.10
2019-05-15T05:59:18.552Z,54.11
2019-05-15T06:01:45.142Z,54.34
2019-05-15T06:04:12.612Z,54.21
2019-05-15T06:06:40.115Z,54.38
2019-05-15T06:09:09.245Z,54.46
2019-05-15T06:11:35.078Z,54.50
2019-05-15T06:14:02.710Z,54.15
2019-05-15T06:16:30.167Z,54.08
2019-05-15T06:18:58.673Z,54.36
2019-05-15T06:21:25.399Z,54.10
2019-05-15T06:23:55.954Z,53.37
2019-05-15T06:26:20.426Z,52.82
2019-05-15T06:28:48.984Z,52.37
2019-05-15T06:31:15.829Z,51.96
2019-05-15T06:33:43.468Z,51.47
2019-05-15T06:36:10.455Z,51.93
2019-05-15T06:38:39.307Z,51.72
2019-05-15T06:41:05.515Z,51.59
2019-05-15T06:43:33.033Z,51.53
2019-05-15T06:46:00.492Z,51.15
2019-05-15T06:48:28.908Z,50.92
2019-05-15T06:50:57.833Z,50.66
2019-05-15T06:53:23.100Z,50.52
2019-05-15T06:55:50.735Z,50.38
2019-05-15T06:58:19.194Z,50.58
2019-05-15T07:00:48.433Z,50.52
2019-05-15T07:03:21.551Z,50.40
2019-05-15T07:05:40.694Z,50.53
2019-05-15T07:08:09.039Z,50.77
2019-05-15T07:10:37.680Z,50.21
2019-05-15T07:13:03.353Z,50.09
2019-05-15T07:15:30.810Z,50.10
2019-05-15T07:17:58.256Z,50.60
2019-05-15T07:20:28.353Z,50.10
2019-05-15T07:22:53.303Z,49.59
2019-05-15T07:25:20.816Z,49.37
2019-05-15T07:27:47.973Z,49.08
2019-05-15T07:30:14.833Z,49.02
2019-05-15T07:32:41.841Z,48.63
2019-05-15T07:35:09.408Z,48.81
2019-05-15T07:37:38.674Z,49.31
2019-05-15T07:40:04.717Z,49.08
2019-05-15T07:42:31.863Z,47.88
2019-05-15T07:44:59.337Z,47.56
2019-05-15T07:47:29.224Z,47.74
2019-05-15T07:49:54.477Z,47.76
2019-05-15T07:52:22.222Z,48.24
2019-05-15T07:54:49.732Z,47.70
2019-05-15T07:57:19.311Z,47.50
2019-05-15T07:59:45.319Z,47.49
2019-05-15T08:02:12.855Z,47.14
2019-05-15T08:04:40.877Z,46.95
2019-05-15T08:07:09.129Z,46.59
2019-05-15T08:09:35.880Z,46.27
2019-05-15T08:12:03.474Z,45.87
2019-05-15T08:14:30.825Z,46.42
2019-05-15T08:16:59.197Z,46.01
2019-05-15T08:19:25.871Z,46.05
2019-05-15T08:21:53.320Z,46.13
2019-05-15T08:24:20.810Z,45.91
2019-05-15T08:26:48.781Z,45.65
2019-05-15T08:29:19.166Z,44.93
2019-05-15T08:31:43.375Z,44.98
2019-05-15T08:34:15.902Z,44.57
2019-05-15T08:36:38.602Z,44.81
2019-05-15T08:39:08.345Z,44.95
2019-05-15T08:41:33.360Z,44.56
2019-05-15T08:44:00.810Z,44.66
2019-05-15T08:46:28.356Z,44.99
2019-05-15T08:48:58.173Z,44.64
2019-05-15T08:51:23.368Z,44.25
2019-05-15T08:53:50.818Z,43.98
2019-05-15T08:56:19.393Z,43.27
2019-05-15T08:58:45.780Z,43.53
2019-05-15T09:01:13.245Z,42.85
2019-05-15T09:03:40.737Z,42.71
2019-05-15T09:06:09.194Z,42.74
2019-05-15T09:08:38.754Z,42.73
2019-05-15T09:11:03.661Z,42.72
2019-05-15T09:13:31.178Z,43.81
2019-05-15T09:15:59.020Z,44.18
2019-05-15T09:18:28.199Z,43.87
2019-05-15T09:20:53.624Z,43.40
2019-05-15T09:23:21.191Z,42.83
2019-05-15T09:25:49.548Z,42.80
2019-05-15T09:28:18.623Z,42.70
2019-05-15T09:30:43.684Z,42.35
2019-05-15T09:33:11.162Z,42.31
2019-05-15T09:35:39.392Z,42.42
2019-05-15T09:38:08.524Z,42.87
2019-05-15T09:40:45.278Z,41.53
2019-05-15T09:43:01.300Z,41.16
2019-05-15T09:45:28.762Z,41.73
2019-05-15T09:47:58.969Z,41.49
2019-05-15T09:50:24.530Z,41.19
2019-05-15T09:52:52.017Z,41.73
2019-05-15T09:55:19.719Z,41.82
2019-05-15T09:57:49.122Z,41.29
2019-05-15T10:00:14.854Z,40.89
2019-05-15T10:02:42.315Z,40.80
2019-05-15T10:05:11.328Z,40.90
2019-05-15T10:07:40.123Z,40.61
2019-05-15T10:10:08.538Z,40.70
2019-05-15T10:12:35.074Z,40.52
2019-05-15T10:15:01.925Z,41.30
2019-05-15T10:17:29.511Z,41.24
2019-05-15T10:19:58.229Z,41.36
2019-05-15T10:22:24.686Z,41.11
2019-05-15T10:24:52.219Z,41.15
2019-05-15T10:27:19.770Z,41.92
2019-05-15T10:29:48.427Z,41.84
2019-05-15T10:32:14.788Z,41.58
2019-05-15T10:34:42.336Z,41.22
2019-05-15T10:37:09.793Z,41.44
2019-05-15T10:39:38.471Z,40.48
2019-05-15T10:42:05.303Z,40.15
2019-05-15T10:44:32.784Z,39.46
2019-05-15T10:47:00.218Z,39.68
2019-05-15T10:49:28.229Z,39.25
2019-05-15T10:51:55.365Z,38.58
2019-05-15T10:54:22.878Z,38.87
2019-05-15T10:56:50.495Z,39.23
2019-05-15T10:59:18.419Z,39.16
2019-05-15T11:01:48.471Z,37.92
2019-05-15T11:04:13.352Z,38.36
2019-05-15T11:06:40.846Z,38.46
2019-05-15T11:09:08.696Z,38.61
2019-05-15T11:11:35.882Z,38.16
2019-05-15T11:14:03.323Z,37.56
2019-05-15T11:16:30.777Z,37.34
2019-05-15T11:18:58.589Z,37.25
2019-05-15T11:21:25.310Z,36.59
2019-05-15T11:23:52.855Z,36.83
2019-05-15T11:26:20.481Z,37.46
2019-05-15T11:28:49.722Z,37.37
2019-05-15T11:31:15.495Z,37.99
2019-05-15T11:33:42.985Z,37.51
2019-05-15T11:36:10.009Z,37.20
2019-05-15T11:38:38.207Z,37.39
2019-05-15T11:41:08.424Z,37.64
2019-05-15T11:43:33.484Z,38.03
2019-05-15T11:46:00.945Z,37.02
2019-05-15T11:48:29.830Z,37.75
2019-05-15T11:50:55.901Z,37.14
2019-05-15T11:53:24.267Z,36.41
2019-05-15T11:55:51.763Z,36.22
2019-05-15T11:58:19.389Z,36.02
2019-05-15T12:00:48.797Z,35.20
2019-05-15T12:03:14.259Z,35.46
2019-05-15T12:05:41.899Z,35.21
2019-05-15T12:08:12.470Z,35.14
2019-05-15T12:10:38.959Z,34.64
2019-05-15T12:13:03.597Z,34.53
2019-05-15T12:15:31.632Z,34.91
2019-05-15T12:17:59.254Z,35.86
2019-05-15T12:20:28.608Z,36.63
2019-05-15T12:22:54.197Z,36.39
2019-05-15T12:25:21.648Z,36.55
2019-05-15T12:27:49.324Z,37.31
2019-05-15T12:30:19.645Z,37.08
2019-05-15T12:32:44.573Z,36.52
2019-05-15T12:35:12.051Z,35.68
2019-05-15T12:37:40.213Z,35.22
2019-05-15T12:59:48.123Z,37.29
2019-05-15T13:02:15.632Z,37.29
2019-05-15T13:04:43.066Z,37.07
2019-05-15T13:07:16.473Z,37.11
2019-05-15T13:09:38.232Z,36.83
2019-05-15T13:12:05.658Z,36.30
2019-05-15T13:14:33.116Z,35.83
2019-05-15T13:17:00.821Z,36.15
2019-05-15T13:19:28.548Z,35.93
2019-05-15T13:21:57.841Z,35.39
2019-05-15T13:24:23.335Z,35.15
2019-05-15T13:26:50.815Z,35.50
2019-05-15T13:29:18.409Z,36.07
2019-05-15T13:31:47.668Z,36.41
2019-05-15T13:34:13.361Z,36.19
2019-05-15T13:36:40.863Z,36.19
2019-05-15T13:39:08.436Z,35.47
2019-05-15T13:41:38.410Z,35.75
2019-05-15T13:44:03.450Z,35.22
2019-05-15T13:46:32.938Z,35.16
2019-05-15T13:48:59.465Z,35.70
2019-05-15T13:51:28.818Z,34.86
2019-05-15T13:53:54.093Z,35.16
2019-05-15T13:56:21.577Z,35.66
2019-05-15T13:58:49.038Z,35.43
2019-05-15T14:01:19.244Z,35.64
2019-05-15T14:03:44.238Z,36.33
2019-05-15T14:06:11.770Z,36.01
2019-05-15T14:08:39.283Z,34.95
2019-05-15T14:11:08.626Z,34.77
2019-05-15T14:13:34.247Z,34.57
2019-05-15T14:16:01.791Z,34.38
2019-05-15T14:18:29.300Z,34.06
2019-05-15T14:20:58.422Z,34.00
2019-05-15T14:23:24.267Z,34.70
2019-05-15T14:25:51.830Z,35.32
2019-05-15T14:28:19.283Z,34.99
2019-05-15T14:30:46.791Z,35.42
2019-05-15T14:33:14.321Z,35.63
2019-05-15T14:35:41.923Z,35.50
2019-05-15T14:38:11.037Z,35.03
2019-05-15T14:40:37.058Z,35.45
2019-05-15T14:43:04.536Z,35.06
2019-05-15T14:45:32.152Z,35.77
2019-05-15T14:47:59.667Z,36.02
2019-05-15T14:50:28.389Z,35.84
2019-05-15T14:52:54.632Z,35.42
2019-05-15T14:55:22.214Z,35.26
2019-05-15T14:57:50.632Z,35.32
2019-05-15T15:00:19.880Z,34.67
2019-05-15T15:02:45.655Z,35.09
2019-05-15T15:05:13.148Z,35.03
2019-05-15T15:07:41.183Z,35.37
2019-05-15T15:10:08.654Z,35.67
2019-05-15T15:12:39.160Z,35.96
2019-05-15T15:15:03.706Z,35.73
2019-05-15T15:17:31.159Z,35.86
2019-05-15T15:20:00.162Z,36.85
2019-05-15T15:22:28.386Z,37.36
2019-05-15T15:24:53.715Z,37.59
2019-05-15T15:27:21.318Z,37.65
2019-05-15T15:29:48.818Z,36.86
2019-05-15T15:32:16.287Z,35.94
2019-05-15T15:34:43.746Z,36.26
2019-05-15T15:37:11.595Z,36.57
2019-05-15T15:39:39.259Z,36.52
2019-05-15T15:42:08.588Z,37.22
2019-05-15T15:44:34.732Z,37.58
2019-05-15T15:47:02.201Z,37.68
2019-05-15T15:49:29.855Z,37.50
2019-05-15T15:51:58.461Z,37.30
2019-05-15T15:54:27.989Z,37.37
2019-05-15T15:56:53.913Z,38.13
2019-05-15T15:59:21.863Z,38.12
2019-05-15T16:01:49.671Z,37.35
2019-05-15T16:04:18.732Z,37.50
2019-05-15T16:06:44.578Z,37.60
2019-05-15T16:09:12.114Z,37.84
2019-05-15T16:11:39.588Z,37.84
2019-05-15T16:14:09.223Z,37.77
2019-05-15T16:16:37.917Z,38.16
2019-05-15T16:19:03.021Z,38.34
2019-05-15T16:21:31.137Z,38.43
2019-05-15T16:23:58.597Z,38.42
2019-05-15T16:26:26.082Z,38.52
2019-05-15T16:28:54.329Z,38.52
2019-05-15T16:31:21.811Z,38.77
2019-05-15T16:33:49.265Z,38.85
2019-05-15T16:36:18.339Z,39.05
2019-05-15T16:38:44.341Z,38.94
2019-05-15T16:41:11.796Z,39.41
2019-05-15T16:43:39.331Z,39.43
2019-05-15T16:46:09.187Z,39.77
2019-05-15T16:48:34.962Z,40.02
2019-05-15T16:51:02.502Z,40.16
2019-05-15T16:53:29.963Z,40.60
2019-05-15T16:55:58.662Z,40.61
2019-05-15T16:58:25.432Z,40.61
2019-05-15T17:00:53.163Z,40.30
2019-05-15T17:03:20.620Z,40.32
2019-05-15T17:05:48.205Z,40.18
2019-05-15T17:08:17.745Z,40.20
2019-05-15T17:10:43.340Z,40.45
2019-05-15T17:13:10.850Z,40.38
2019-05-15T17:15:38.590Z,40.33
2019-05-15T17:18:08.994Z,40.08
2019-05-15T17:20:34.391Z,39.51
2019-05-15T17:23:01.887Z,38.97
2019-05-15T17:25:29.355Z,39.08
2019-05-15T17:27:58.431Z,38.95
2019-05-15T17:30:24.400Z,39.52
2019-05-15T17:32:51.880Z,39.59
2019-05-15T17:35:19.453Z,39.66
2019-05-15T17:37:48.720Z,39.72
2019-05-15T17:40:15.113Z,40.21
2019-05-15T17:42:42.684Z,40.63
2019-05-15T17:45:10.229Z,40.94
2019-05-15T17:47:38.732Z,41.04
2019-05-15T17:50:05.195Z,41.06
2019-05-15T17:52:32.659Z,41.32
2019-05-15T17:55:00.140Z,41.60
2019-05-15T17:57:28.613Z,41.71
2019-05-15T17:59:55.797Z,41.60
2019-05-15T18:02:23.311Z,41.53
2019-05-15T18:04:50.858Z,41.56
2019-05-15T18:07:18.963Z,41.65
2019-05-15T18:09:51.563Z,41.77
2019-05-15T18:12:14.207Z,41.69
2019-05-15T18:14:41.707Z,41.90
2019-05-15T18:17:09.968Z,42.25
2019-05-15T18:19:38.041Z,42.64
2019-05-15T18:22:05.075Z,43.16
2019-05-15T18:24:32.650Z,43.72
2019-05-15T18:27:00.281Z,44.04
2019-05-15T18:29:27.953Z,44.15
2019-05-15T18:31:55.605Z,44.22
2019-05-15T18:34:23.230Z,44.86
2019-05-15T18:36:50.710Z,44.81
2019-05-15T18:39:18.182Z,44.66
2019-05-15T18:41:45.676Z,44.78
2019-05-15T18:44:13.234Z,44.79
2019-05-15T18:46:40.931Z,45.16
2019-05-15T18:49:08.487Z,45.41
2019-05-15T18:51:38.415Z,45.60
2019-05-15T18:54:03.546Z,45.90
2019-05-15T18:56:31.017Z,46.40
2019-05-15T18:58:58.619Z,46.79
2019-05-15T19:01:28.278Z,47.11
2019-05-15T19:03:53.635Z,47.47
2019-05-15T19:06:21.525Z,47.92
2019-05-15T19:08:49.010Z,48.30
2019-05-15T19:11:18.362Z,48.58
2019-05-15T19:13:44.124Z,48.74
2019-05-15T19:16:11.683Z,48.83
2019-05-15T19:18:39.229Z,48.59
2019-05-15T19:21:07.948Z,48.10
2019-05-15T19:23:34.224Z,47.96
2019-05-15T19:26:01.732Z,47.65
2019-05-15T19:28:29.188Z,47.05
2019-05-15T19:30:58.554Z,46.83
2019-05-15T19:33:34.502Z,46.79
2019-05-15T19:35:51.763Z,46.93
2019-05-15T19:38:19.285Z,47.07
2019-05-15T19:40:47.869Z,47.00
2019-05-15T19:43:15.289Z,47.10
2019-05-15T19:45:42.829Z,47.42
2019-05-15T19:48:10.477Z,47.86
2019-05-15T19:50:38.413Z,47.55
2019-05-15T19:53:08.037Z,47.58
2019-05-15T19:55:33.480Z,47.95
2019-05-15T19:58:01.002Z,47.95
2019-05-15T20:00:28.816Z,47.61
2019-05-15T20:02:58.102Z,47.48
2019-05-15T20:05:23.545Z,47.13
2019-05-15T20:07:51.011Z,47.34
2019-05-15T20:10:18.795Z,47.52
2019-05-15T20:12:47.857Z,47.70
2019-05-15T20:15:13.511Z,47.50
2019-05-15T20:17:41.026Z,47.52
2019-05-15T20:20:08.914Z,47.63
2019-05-15T20:22:37.508Z,48.03
2019-05-15T20:25:03.534Z,48.45
2019-05-15T20:27:30.990Z,48.82
2019-05-15T20:29:58.723Z,49.09
2019-05-15T20:32:27.821Z,49.32
2019-05-15T20:34:53.788Z,49.10
2019-05-15T20:37:21.481Z,49.10
2019-05-15T20:39:50.174Z,49.18
2019-05-15T20:42:18.116Z,49.10
2019-05-15T20:44:45.178Z,49.09
2019-05-15T20:47:12.636Z,49.01
2019-05-15T20:49:41.330Z,48.86
2019-05-15T20:52:08.827Z,48.93
2019-05-15T20:54:38.608Z,48.88
2019-05-15T20:57:03.959Z,48.70
2019-05-15T20:59:31.398Z,48.64
2019-05-15T21:01:59.456Z,48.61
2019-05-15T21:04:28.071Z,48.71
2019-05-15T21:06:54.148Z,48.87
2019-05-15T21:09:21.675Z,49.00
2019-05-15T21:11:49.168Z,49.11
2019-05-15T21:14:16.629Z,49.12
2019-05-15T21:16:44.080Z,49.23
2019-05-15T21:19:11.555Z,49.20
2019-05-15T21:21:39.034Z,49.58
2019-05-15T21:24:06.527Z,49.82
2019-05-15T21:26:34.225Z,50.14
2019-05-15T21:29:01.733Z,50.62
2019-05-15T21:31:29.200Z,50.83
2019-05-15T21:33:58.756Z,51.13
2019-05-15T21:36:24.206Z,51.32
2019-05-15T21:38:51.666Z,51.17
2019-05-15T21:41:19.100Z,50.89
2019-05-15T21:43:48.239Z,50.55
2019-05-15T21:46:14.068Z,50.64
2019-05-15T21:48:41.543Z,50.77
2019-05-15T21:51:11.835Z,50.96
2019-05-15T21:53:38.757Z,51.03
2019-05-15T21:56:03.991Z,50.86
2019-05-15T21:58:31.633Z,50.85
2019-05-15T22:00:59.159Z,50.72
2019-05-15T22:03:28.526Z,50.69
2019-05-15T22:05:54.120Z,50.80
2019-05-15T22:08:21.570Z,50.95
2019-05-15T22:10:49.061Z,50.93
2019-05-15T22:13:16.556Z,51.01
2019-05-15T22:15:44.023Z,51.00
2019-05-15T22:18:11.807Z,50.83
2019-05-15T22:20:38.963Z,50.99
2019-05-15T22:23:08.228Z,51.21
2019-05-15T22:25:33.987Z,51.16
2019-05-15T22:28:01.431Z,51.29
2019-05-15T22:30:30.329Z,51.34
2019-05-15T22:32:58.463Z,51.66
2019-05-15T22:35:23.991Z,51.79
2019-05-15T22:37:51.466Z,51.79
2019-05-15T22:40:18.969Z,51.88
2019-05-15T22:42:48.611Z,51.99
2019-05-15T22:45:13.924Z,51.85
2019-05-15T22:47:41.430Z,51.98
2019-05-15T22:50:08.950Z,52.00
2019-05-15T22:52:38.726Z,52.32
2019-05-15T22:55:04.080Z,52.44
2019-05-15T22:57:31.594Z,52.46
2019-05-15T22:59:59.050Z,52.48
2019-05-15T23:02:26.493Z,52.37
2019-05-15T23:04:54.060Z,52.32
2019-05-15T23:07:21.558Z,52.17
2019-05-15T23:09:49.093Z,52.10
2019-05-15T23:12:18.282Z,52.02
2019-05-15T23:14:44.454Z,51.75
2019-05-15T23:17:11.910Z,51.60
2019-05-15T23:19:39.495Z,51.69
2019-05-15T23:22:08.390Z,51.94
2019-05-15T23:24:34.558Z,52.30
2019-05-15T23:27:02.039Z,52.23
2019-05-15T23:29:29.491Z,51.98
2019-05-15T23:31:58.434Z,51.91
2019-05-15T23:34:27.873Z,52.14
2019-05-15T23:36:52.981Z,52.05
2019-05-15T23:39:20.423Z,52.00
2019-05-15T23:41:47.895Z,51.88
2019-05-15T23:44:15.336Z,52.04
2019-05-15T23:46:42.798Z,51.93
2019-05-15T23:49:10.256Z,51.78
2019-05-15T23:51:38.471Z,51.90
2019-05-15T23:54:05.195Z,51.95
2019-05-15T23:56:32.639Z,51.92
2019-05-15T23:59:00.090Z,51.97
